Flight Track Log - Related Links

Times and Time Zones

All times are in EDT time to prevent confusion due to time zone crossing. See the SVA1482 flight status page for this flight to view local times or setup timezone preferences in your user account.

Time Position Orientation Groundspeed Altitude Reporting Facility
EDT Latitude Longitude Course Direction KTS MPH feet Rate Location/Type
Mon 02:30:00 PM 27.9980 46.1839 171° South  Level Estimated
Mon 02:31:00 PM 27.9137 46.1986 171° South  Level Estimated
Mon 02:32:00 PM 27.8293 46.2132 171° South  Level Estimated
Mon 02:33:00 PM 27.7450 46.2279 171° South  Level Estimated
Mon 02:34:00 PM 27.6607 46.2424 171° South  Level Estimated
Mon 02:35:00 PM 27.5764 46.2570 171° South  Level Estimated
Mon 02:36:00 PM 27.4921 46.2715 171° South  Level Estimated
Mon 02:37:00 PM 27.4077 46.2861 171° South  Level Estimated
Mon 02:38:00 PM 27.3234 46.3006 171° South  Level Estimated
Mon 02:39:00 PM 27.2391 46.3151 171° South  Level Estimated
Mon 02:40:00 PM 27.1548 46.3295 171° South  Level Estimated
Mon 02:41:00 PM 27.0704 46.3439 171° South  Level Estimated
Mon 02:42:00 PM 26.9861 46.3584 171° South  Level Estimated
Mon 02:43:00 PM 26.9018 46.3728 171° South  Level Estimated
Mon 02:44:00 PM 26.8175 46.3871 171° South  Level Estimated
Mon 02:45:00 PM 26.7331 46.4015 171° South  Level Estimated
Mon 02:46:00 PM 26.6488 46.4158 171° South  Level Estimated
Mon 02:47:00 PM 26.5645 46.4301 171° South  Level Estimated
Mon 02:48:00 PM 26.4801 46.4444 171° South  Level Estimated
Mon 02:49:00 PM 26.3958 46.4587 171° South  Level Estimated
Mon 02:50:00 PM 26.3114 46.4729 171° South  Level Estimated
Mon 02:51:00 PM 26.2271 46.4871 171° South  Level Estimated
Mon 02:52:00 PM 26.1428 46.5013 171° South  Level Estimated
Mon 02:53:00 PM 26.0584 46.5155 171° South  Level Estimated
Mon 02:54:00 PM 25.9741 46.5297 171° South  Level Estimated
Mon 02:55:00 PM 25.8897 46.5438 171° South  Level Estimated
Mon 02:56:00 PM 25.8054 46.5579 171° South  Level Estimated
Mon 02:57:00 PM 25.7210 46.5721 171° South  Level Estimated
Mon 02:58:00 PM 25.6367 46.5861 171° South  Level Estimated
Mon 02:59:00 PM 25.5523 46.6002 171° South  Level Estimated
Mon 03:00:00 PM 25.4680 46.6142 171° South  Level Estimated
Mon 03:01:00 PM 25.3836 46.6283 171° South  Level Estimated
Mon 03:02:00 PM 25.2992 46.6423 171° South  Level Estimated
Mon 03:03:00 PM 25.2149 46.6562 171° South  Level Estimated
Mon 03:04:00 PM 25.1305 46.6702 171° South  Level Estimated
Mon 03:05:00 PM 25.0462 46.6842 171° South  Level Estimated
Mon 03:06:00 PM 24.9618 46.6981 171° South  Level Estimated
Mon 03:07:00 PM 24.9576 46.6988 171° South  Level Estimated
Mon 03:08:00 PM 24.9576 46.6988 North  Level Estimated
Mon 03:09:00 PM 24.9576 46.6988 North  Level Estimated
Mon 03:10:00 PM 24.9576 46.6988 North  Level Estimated
Mon 03:11:00 PM 24.9576 46.6988 North  Level Estimated
Mon 03:12:00 PM 24.9576 46.6988 North  Level Estimated
Mon 03:13:00 PM 24.9576 46.6988 North  Level Estimated
Mon 03:14:00 PM 24.9576 46.6988 North  Level Estimated

Login

Don't have an account? Register now (free) for customized features, flight alerts, and more!